createdAt,value
2023-03-10T00:01:21.389Z,74.90
2023-03-10T00:03:49.736Z,74.50
2023-03-10T00:06:20.759Z,74.40
2023-03-10T00:08:48.529Z,75.10
2023-03-10T00:11:15.466Z,74.30
2023-03-10T00:13:42.843Z,74.30
2023-03-10T00:16:25.260Z,74.30
2023-03-10T00:18:53.154Z,74.30
2023-03-10T00:21:24.706Z,74.20
2023-03-10T00:23:53.038Z,74.10
2023-03-10T00:26:21.986Z,74.10
2023-03-10T00:28:50.017Z,74.10
2023-03-10T00:31:21.723Z,74.20
2023-03-10T00:33:49.405Z,74.50
2023-03-10T00:36:23.439Z,74.70
2023-03-10T00:38:53.076Z,74.80
2023-03-10T00:41:26.596Z,74.70
2023-03-10T00:43:54.337Z,74.60
2023-03-10T00:46:21.446Z,74.50
2023-03-10T00:48:48.615Z,74.50
2023-03-10T00:51:16.433Z,74.60
2023-03-10T00:53:43.721Z,74.50
2023-03-10T00:56:25.676Z,74.50
2023-03-10T00:58:55.958Z,74.50
2023-03-10T01:01:39.591Z,74.60
2023-03-10T01:04:12.105Z,74.60
2023-03-10T01:06:39.769Z,74.70
2023-03-10T01:09:07.737Z,74.70
2023-03-10T01:11:35.176Z,74.70
2023-03-10T01:14:05.953Z,74.70
2023-03-10T01:16:33.613Z,74.70
2023-03-10T01:19:00.894Z,74.80
2023-03-10T01:21:33.028Z,74.80
2023-03-10T01:24:01.364Z,74.90
2023-03-10T01:26:30.119Z,74.90
2023-03-10T01:28:57.350Z,75.00
2023-03-10T01:31:24.299Z,75.00
2023-03-10T01:33:51.295Z,75.30
2023-03-10T01:36:25.789Z,75.40
2023-03-10T01:38:55.744Z,75.50
2023-03-10T01:41:23.427Z,75.50
2023-03-10T01:43:53.768Z,76.50
2023-03-10T01:46:44.157Z,75.90
2023-03-10T01:49:26.480Z,75.80
2023-03-10T01:52:11.666Z,75.60
2023-03-10T01:55:07.584Z,75.60
2023-03-10T01:57:41.733Z,75.60
2023-03-10T02:00:12.851Z,75.50
2023-03-10T02:03:15.460Z,75.60
2023-03-10T02:05:51.903Z,75.60
2023-03-10T02:08:20.669Z,75.60
2023-03-10T02:10:49.845Z,75.70
2023-03-10T02:13:17.352Z,75.70
2023-03-10T02:15:45.238Z,75.70
2023-03-10T02:18:15.171Z,75.90
2023-03-10T02:21:03.968Z,76.00
2023-03-10T02:23:58.662Z,76.10
2023-03-10T02:26:56.759Z,76.00
2023-03-10T02:29:52.470Z,75.90
2023-03-10T02:32:24.883Z,75.70
2023-03-10T02:34:51.993Z,75.70
2023-03-10T02:37:27.267Z,75.70
2023-03-10T02:39:55.518Z,75.90
2023-03-10T02:42:26.799Z,75.90
2023-03-10T02:44:54.612Z,76.10
2023-03-10T02:47:21.715Z,76.10
2023-03-10T02:49:48.879Z,76.10
2023-03-10T02:52:39.504Z,76.30
2023-03-10T02:55:07.117Z,76.60
2023-03-10T02:57:34.217Z,76.70
2023-03-10T03:00:02.495Z,76.90
2023-03-10T03:02:31.095Z,76.90
2023-03-10T03:04:58.115Z,77.10
2023-03-10T03:07:25.184Z,77.00
2023-03-10T03:09:52.345Z,76.90
2023-03-10T03:12:19.210Z,76.70
2023-03-10T03:14:47.080Z,76.50
2023-03-10T03:17:14.323Z,76.50
2023-03-10T03:19:41.649Z,76.60
2023-03-10T03:22:08.624Z,76.70
2023-03-10T03:24:35.625Z,76.90
2023-03-10T03:27:02.982Z,76.90
2023-03-10T03:29:30.039Z,76.90
2023-03-10T03:31:57.205Z,76.80
2023-03-10T03:34:29.146Z,76.80
2023-03-10T03:36:59.691Z,76.80
2023-03-10T03:39:34.677Z,76.80
2023-03-10T03:42:05.088Z,76.70
2023-03-10T03:44:41.070Z,76.70
2023-03-10T03:47:10.816Z,76.70
2023-03-10T03:49:40.529Z,76.60
2023-03-10T03:52:08.501Z,76.50
2023-03-10T03:54:35.905Z,76.50
2023-03-10T03:57:03.722Z,76.40
2023-03-10T03:59:31.480Z,76.30
2023-03-10T04:01:58.519Z,76.20
2023-03-10T04:04:26.200Z,75.90
2023-03-10T04:06:53.583Z,75.90
2023-03-10T04:09:20.630Z,75.70
2023-03-10T04:11:47.911Z,75.70
2023-03-10T04:14:14.855Z,75.50
2023-03-10T04:16:42.185Z,75.30
2023-03-10T04:19:09.410Z,75.10
2023-03-10T04:21:40.903Z,75.00
2023-03-10T04:24:08.598Z,74.90
2023-03-10T04:26:35.892Z,74.70
2023-03-10T04:29:03.564Z,74.30
2023-03-10T04:31:32.975Z,74.30
2023-03-10T04:34:02.228Z,74.40
2023-03-10T04:36:29.343Z,74.30
2023-03-10T04:38:59.261Z,74.40
2023-03-10T04:41:30.151Z,74.40
2023-03-10T04:43:57.274Z,74.30
2023-03-10T04:46:24.491Z,74.30
2023-03-10T04:48:51.896Z,74.10
2023-03-10T04:51:20.014Z,74.00
2023-03-10T04:53:51.643Z,74.00
2023-03-10T04:56:19.550Z,74.00
2023-03-10T04:58:47.211Z,74.10
2023-03-10T05:01:15.749Z,74.10
2023-03-10T05:03:47.448Z,74.20
2023-03-10T05:06:18.302Z,74.20
2023-03-10T05:08:50.884Z,73.90
2023-03-10T05:11:20.776Z,73.90
2023-03-10T05:13:48.248Z,74.00
2023-03-10T05:16:22.015Z,73.90
2023-03-10T05:18:50.413Z,74.00
2023-03-10T05:21:22.268Z,74.00
2023-03-10T05:23:50.853Z,74.00
2023-03-10T05:26:19.291Z,74.00
2023-03-10T05:28:46.706Z,74.00
2023-03-10T05:31:17.335Z,74.00
2023-03-10T05:33:47.808Z,74.00
2023-03-10T05:36:14.790Z,74.00
2023-03-10T05:38:44.334Z,74.00
2023-03-10T05:41:13.956Z,74.10
2023-03-10T05:43:42.523Z,74.10
2023-03-10T05:46:12.520Z,74.30
2023-03-10T05:48:45.439Z,73.40
2023-03-10T05:51:13.420Z,73.50
2023-03-10T05:53:41.997Z,73.20
2023-03-10T05:56:18.236Z,73.00
2023-03-10T05:58:50.892Z,73.00
2023-03-10T06:01:20.292Z,72.50
2023-03-10T06:03:47.718Z,72.30
2023-03-10T06:06:14.770Z,72.10
2023-03-10T06:08:43.024Z,71.40
2023-03-10T06:11:10.232Z,70.90
2023-03-10T06:13:37.573Z,70.70
2023-03-10T06:16:06.986Z,70.80
2023-03-10T06:18:34.850Z,69.80
2023-03-10T06:21:10.435Z,70.30
2023-03-10T06:23:37.921Z,68.40
2023-03-10T06:26:09.080Z,68.50
2023-03-10T06:28:39.086Z,68.50
2023-03-10T06:31:20.756Z,68.10
2023-03-10T06:33:48.005Z,68.20
2023-03-10T06:36:16.538Z,67.10
2023-03-10T06:38:44.242Z,67.50
2023-03-10T06:41:11.879Z,65.60
2023-03-10T06:43:39.592Z,66.30
2023-03-10T06:46:08.785Z,65.30
2023-03-10T06:48:37.147Z,65.10
2023-03-10T06:51:10.666Z,64.20
2023-03-10T06:53:38.009Z,63.80
2023-03-10T06:56:10.595Z,63.80
2023-03-10T06:58:38.436Z,63.60
2023-03-10T07:01:07.454Z,63.40
2023-03-10T07:03:36.206Z,63.10
2023-03-10T07:06:03.288Z,62.30
2023-03-10T07:08:30.695Z,63.00
2023-03-10T07:10:57.860Z,61.70
2023-03-10T07:13:25.138Z,62.30
2023-03-10T07:15:52.327Z,61.50
2023-03-10T07:18:19.767Z,61.70
2023-03-10T07:20:52.967Z,62.40
2023-03-10T07:23:20.335Z,61.50
2023-03-10T07:25:55.971Z,61.10
2023-03-10T07:28:24.896Z,60.20
2023-03-10T07:30:52.366Z,61.10
2023-03-10T07:33:19.311Z,61.40
2023-03-10T07:35:46.414Z,59.50
2023-03-10T07:38:13.626Z,59.80
2023-03-10T07:40:41.579Z,60.20
2023-03-10T07:43:08.517Z,59.90
2023-03-10T07:45:38.212Z,59.90
2023-03-10T07:48:06.012Z,58.50
2023-03-10T07:50:33.289Z,59.20
2023-03-10T07:53:00.275Z,59.60
2023-03-10T07:55:27.250Z,58.30
2023-03-10T07:57:56.691Z,58.00
2023-03-10T08:00:23.798Z,56.80
2023-03-10T08:02:50.856Z,57.50
2023-03-10T08:05:17.940Z,57.20
2023-03-10T08:07:44.925Z,57.00
2023-03-10T08:10:12.863Z,56.60
2023-03-10T08:12:39.849Z,58.10
2023-03-10T08:15:07.602Z,57.50
2023-03-10T08:17:34.492Z,57.00
2023-03-10T08:20:01.963Z,58.60
2023-03-10T08:22:29.058Z,57.30
2023-03-10T08:24:56.246Z,58.10
2023-03-10T08:27:23.269Z,57.70
2023-03-10T08:29:50.533Z,57.50
2023-03-10T08:32:18.356Z,57.80
2023-03-10T08:34:45.620Z,57.40
2023-03-10T08:37:12.527Z,58.00
2023-03-10T08:39:40.262Z,57.80
2023-03-10T08:42:11.508Z,58.10
2023-03-10T08:44:39.434Z,58.10
2023-03-10T08:47:06.646Z,58.10
2023-03-10T08:49:33.980Z,57.80
2023-03-10T08:52:01.176Z,58.40
2023-03-10T08:54:28.834Z,58.10
2023-03-10T08:56:57.046Z,59.40
2023-03-10T08:59:24.039Z,59.40
2023-03-10T09:01:51.073Z,59.30
2023-03-10T09:04:18.155Z,59.20
2023-03-10T09:06:45.173Z,59.10
2023-03-10T09:09:13.060Z,59.10
2023-03-10T09:11:41.372Z,59.80
2023-03-10T09:14:11.011Z,59.90
2023-03-10T09:16:39.564Z,60.10
2023-03-10T09:19:06.690Z,60.20
2023-03-10T09:21:34.030Z,60.20
2023-03-10T09:24:03.646Z,60.20
2023-03-10T09:26:30.917Z,60.30
2023-03-10T09:28:57.932Z,60.50
2023-03-10T09:31:34.539Z,60.70
2023-03-10T09:34:02.080Z,61.10
2023-03-10T09:36:29.799Z,61.00
2023-03-10T09:39:00.458Z,61.30
2023-03-10T09:42:25.993Z,61.80
2023-03-10T09:45:37.631Z,62.20
2023-03-10T09:48:26.369Z,63.40
2023-03-10T09:50:56.499Z,63.80
2023-03-10T09:54:04.232Z,64.20
2023-03-10T09:56:36.292Z,63.80
2023-03-10T09:59:09.696Z,64.30
2023-03-10T10:01:37.833Z,64.80
2023-03-10T10:04:19.575Z,64.50
2023-03-10T10:06:49.056Z,64.30
2023-03-10T10:09:28.098Z,64.10
2023-03-10T10:11:55.962Z,64.30
2023-03-10T10:14:31.329Z,64.10
2023-03-10T10:17:52.961Z,64.00
2023-03-10T10:20:29.522Z,64.00
2023-03-10T10:22:56.463Z,63.40
2023-03-10T10:25:31.967Z,63.40
2023-03-10T10:28:01.409Z,63.50
2023-03-10T10:30:47.524Z,63.50
2023-03-10T10:33:16.499Z,63.60
2023-03-10T10:36:02.623Z,63.10
2023-03-10T10:38:32.414Z,63.10
2023-03-10T10:41:08.068Z,63.00
2023-03-10T10:43:44.589Z,62.90
2023-03-10T10:46:15.036Z,62.70
2023-03-10T10:48:51.488Z,62.40
2023-03-10T10:51:28.992Z,61.30
2023-03-10T10:53:59.551Z,60.30
2023-03-10T10:56:31.245Z,60.70
2023-03-10T10:59:04.055Z,60.40
2023-03-10T11:02:11.919Z,60.20
2023-03-10T11:04:45.829Z,60.60
2023-03-10T11:07:25.290Z,60.30
2023-03-10T11:09:52.955Z,60.70
2023-03-10T11:12:36.000Z,60.80
2023-03-10T11:15:37.179Z,60.80
2023-03-10T11:18:13.163Z,60.70
2023-03-10T11:21:18.167Z,59.20
2023-03-10T11:24:26.001Z,60.00
2023-03-10T11:27:05.332Z,59.50
2023-03-10T11:29:56.282Z,58.90
2023-03-10T11:32:36.637Z,58.50
2023-03-10T11:35:32.973Z,58.70
2023-03-10T11:38:21.788Z,58.20
2023-03-10T11:40:54.164Z,58.10
2023-03-10T11:43:28.904Z,58.50
2023-03-10T11:46:01.472Z,58.70
2023-03-10T11:48:57.073Z,58.40
2023-03-10T11:51:36.392Z,59.30
2023-03-10T11:54:21.356Z,59.50
2023-03-10T11:56:51.088Z,59.00
2023-03-10T11:59:33.644Z,58.50
2023-03-10T12:02:29.908Z,58.60
2023-03-10T12:05:21.796Z,58.30
2023-03-10T12:08:02.825Z,58.10
2023-03-10T12:10:31.390Z,58.30
2023-03-10T12:12:58.482Z,57.60
2023-03-10T12:15:39.769Z,57.80
2023-03-10T12:18:08.171Z,57.80
2023-03-10T12:20:36.021Z,57.80
2023-03-10T12:23:26.928Z,57.70
2023-03-10T12:25:54.014Z,57.20
2023-03-10T12:28:29.072Z,57.50
2023-03-10T12:31:12.133Z,57.20
2023-03-10T12:33:50.622Z,57.20
2023-03-10T12:36:31.718Z,57.00
2023-03-10T12:39:23.054Z,55.80
2023-03-10T12:41:53.140Z,56.00
2023-03-10T12:44:41.123Z,56.10
2023-03-10T12:47:08.104Z,55.50
2023-03-10T12:49:40.921Z,55.60
2023-03-10T12:52:08.021Z,55.90
2023-03-10T12:55:08.731Z,55.80
2023-03-10T12:58:12.239Z,55.50
2023-03-10T13:00:58.618Z,54.70
2023-03-10T13:03:35.388Z,55.00
2023-03-10T13:06:07.527Z,54.50
2023-03-10T13:08:44.932Z,54.30
2023-03-10T13:11:25.169Z,55.00
2023-03-10T13:13:59.175Z,55.00
2023-03-10T13:16:26.188Z,55.00
2023-03-10T13:18:54.730Z,55.00
2023-03-10T13:21:28.533Z,54.70
2023-03-10T13:23:57.371Z,53.80
2023-03-10T13:26:25.240Z,54.20
2023-03-10T13:28:57.944Z,54.60
2023-03-10T13:31:34.665Z,53.40
2023-03-10T13:34:20.636Z,53.80
2023-03-10T13:36:48.882Z,53.80
2023-03-10T13:39:27.360Z,53.10
2023-03-10T13:41:58.730Z,53.50
2023-03-10T13:44:28.257Z,53.00
2023-03-10T13:47:01.488Z,53.10
2023-03-10T13:49:34.690Z,53.50
2023-03-10T13:52:07.774Z,53.20
2023-03-10T13:54:37.014Z,53.60
2023-03-10T13:57:33.736Z,53.10
2023-03-10T14:00:01.819Z,53.50
2023-03-10T14:02:36.220Z,53.50
2023-03-10T14:05:06.219Z,52.90
2023-03-10T14:07:36.695Z,52.30
2023-03-10T14:10:08.058Z,51.50
2023-03-10T14:12:42.354Z,52.00
2023-03-10T14:15:24.492Z,52.40
2023-03-10T14:18:06.488Z,51.90
2023-03-10T14:20:37.081Z,52.60
2023-03-10T14:23:19.361Z,52.40
2023-03-10T14:25:47.690Z,53.20
2023-03-10T14:28:33.254Z,52.00
2023-03-10T14:31:02.527Z,52.00
2023-03-10T14:33:30.252Z,52.00
2023-03-10T14:35:57.194Z,52.70
2023-03-10T14:38:24.240Z,52.70
2023-03-10T14:40:54.508Z,52.30
2023-03-10T14:43:25.811Z,52.50
2023-03-10T14:46:01.054Z,52.60
2023-03-10T14:48:34.502Z,52.00
2023-03-10T14:51:01.627Z,52.70
2023-03-10T14:53:30.975Z,53.20
2023-03-10T14:56:01.763Z,53.10
2023-03-10T14:58:35.181Z,53.20
2023-03-10T15:01:02.719Z,53.60
2023-03-10T15:03:29.641Z,53.70
2023-03-10T15:05:56.806Z,53.70
2023-03-10T15:08:23.832Z,53.40
2023-03-10T15:10:52.016Z,53.40
2023-03-10T15:13:23.095Z,53.20
2023-03-10T15:15:50.915Z,53.50
2023-03-10T15:18:21.749Z,53.20
2023-03-10T15:20:49.255Z,53.10
2023-03-10T15:23:19.863Z,53.30
2023-03-10T15:25:47.590Z,54.40
2023-03-10T15:28:14.812Z,55.00
2023-03-10T15:30:43.070Z,55.40
2023-03-10T15:33:10.763Z,56.00
2023-03-10T15:35:39.991Z,56.30
2023-03-10T15:38:07.098Z,56.70
2023-03-10T15:40:35.474Z,57.10
2023-03-10T15:43:02.703Z,57.40
2023-03-10T15:45:31.294Z,58.00
2023-03-10T15:47:59.142Z,57.80
2023-03-10T15:50:27.486Z,57.40
2023-03-10T15:52:58.878Z,56.80
2023-03-10T15:55:27.587Z,56.40
2023-03-10T15:57:56.082Z,56.00
2023-03-10T16:00:26.401Z,55.50
2023-03-10T16:02:54.142Z,55.40
2023-03-10T16:05:21.474Z,54.60
2023-03-10T16:07:48.505Z,54.10
2023-03-10T16:10:19.823Z,54.50
2023-03-10T16:12:46.899Z,54.50
2023-03-10T16:15:16.946Z,54.80
2023-03-10T16:17:45.202Z,55.00
2023-03-10T16:20:13.799Z,55.10
2023-03-10T16:22:43.203Z,55.60
2023-03-10T16:25:18.971Z,55.70
2023-03-10T16:27:47.578Z,56.10
2023-03-10T16:30:17.292Z,56.80
2023-03-10T16:32:46.420Z,57.40
2023-03-10T16:35:13.929Z,58.00
2023-03-10T16:37:42.715Z,58.40
2023-03-10T16:40:11.481Z,58.20
2023-03-10T16:42:38.925Z,58.30
2023-03-10T16:45:07.440Z,59.10
2023-03-10T16:47:34.429Z,59.60
2023-03-10T16:50:01.409Z,59.50
2023-03-10T16:52:28.370Z,59.70
2023-03-10T16:55:01.196Z,59.60
2023-03-10T16:57:28.133Z,60.10
2023-03-10T16:59:55.067Z,60.20
2023-03-10T17:02:22.027Z,60.30
2023-03-10T17:04:49.085Z,60.40
2023-03-10T17:07:16.527Z,60.70
2023-03-10T17:09:43.556Z,60.80
2023-03-10T17:12:10.469Z,60.80
2023-03-10T17:14:37.643Z,60.80
2023-03-10T17:17:06.626Z,61.60
2023-03-10T17:19:34.761Z,61.80
2023-03-10T17:22:01.761Z,61.10
2023-03-10T17:24:29.561Z,61.10
2023-03-10T17:26:57.097Z,61.10
2023-03-10T17:29:24.127Z,61.10
2023-03-10T17:31:51.789Z,61.20
2023-03-10T17:34:20.108Z,61.30
2023-03-10T17:36:50.753Z,61.40
2023-03-10T17:39:21.376Z,61.40
2023-03-10T17:41:49.283Z,61.80
2023-03-10T17:44:16.950Z,61.80
2023-03-10T17:46:44.208Z,61.90
2023-03-10T17:49:15.297Z,62.10
2023-03-10T17:51:44.287Z,62.80
2023-03-10T17:54:20.216Z,62.60
2023-03-10T17:56:48.721Z,62.80
2023-03-10T17:59:16.677Z,63.10
2023-03-10T18:01:45.801Z,63.30
2023-03-10T18:04:13.302Z,63.80
2023-03-10T18:06:40.460Z,63.40
2023-03-10T18:09:11.504Z,63.80
2023-03-10T18:11:38.993Z,65.30
2023-03-10T18:14:06.550Z,64.20
2023-03-10T18:16:38.921Z,64.50
2023-03-10T18:19:10.474Z,64.60
2023-03-10T18:21:38.604Z,65.20
2023-03-10T18:24:06.495Z,65.40
2023-03-10T18:26:33.796Z,65.50
2023-03-10T18:29:01.073Z,65.60
2023-03-10T18:31:34.159Z,65.90
2023-03-10T18:34:02.253Z,65.80
2023-03-10T18:36:30.163Z,65.80
2023-03-10T18:38:57.874Z,65.90
2023-03-10T18:41:27.770Z,65.80
2023-03-10T18:43:54.946Z,65.90
2023-03-10T18:46:22.515Z,66.10
2023-03-10T18:48:55.866Z,65.90
2023-03-10T18:51:28.113Z,65.90
2023-03-10T18:53:55.640Z,66.00
2023-03-10T18:56:25.597Z,66.00
2023-03-10T18:58:52.637Z,66.20
2023-03-10T19:01:19.536Z,66.10
2023-03-10T19:03:46.730Z,66.00
2023-03-10T19:06:13.877Z,66.10
2023-03-10T19:08:41.509Z,65.90
2023-03-10T19:11:08.606Z,65.90
2023-03-10T19:13:40.267Z,65.80
2023-03-10T19:16:09.408Z,65.80
2023-03-10T19:18:36.775Z,65.80
2023-03-10T19:21:04.238Z,66.10
2023-03-10T19:23:32.238Z,66.00
2023-03-10T19:25:59.228Z,66.50
2023-03-10T19:28:26.406Z,66.90
2023-03-10T19:30:53.418Z,66.80
2023-03-10T19:33:20.614Z,66.80
2023-03-10T19:35:47.495Z,66.80
2023-03-10T19:38:14.733Z,66.80
2023-03-10T19:40:46.064Z,66.80
2023-03-10T19:43:13.253Z,67.10
2023-03-10T19:45:40.467Z,67.00
2023-03-10T19:48:07.593Z,67.10
2023-03-10T19:50:34.485Z,67.00
2023-03-10T19:53:01.610Z,67.00
2023-03-10T19:55:29.519Z,67.10
2023-03-10T19:57:56.698Z,67.20
2023-03-10T20:00:30.890Z,67.70
2023-03-10T20:02:58.397Z,67.70
2023-03-10T20:05:26.711Z,68.00
2023-03-10T20:07:53.932Z,68.20
2023-03-10T20:10:20.813Z,68.40
2023-03-10T20:12:51.046Z,68.70
2023-03-10T20:15:18.668Z,68.80
2023-03-10T20:17:45.924Z,69.10
2023-03-10T20:20:15.108Z,69.00
2023-03-10T20:22:47.806Z,69.30
2023-03-10T20:25:19.364Z,69.40
2023-03-10T20:27:48.132Z,69.20
2023-03-10T20:30:27.581Z,69.20
2023-03-10T20:32:55.735Z,68.90
2023-03-10T20:35:23.484Z,68.50
2023-03-10T20:37:50.610Z,68.40
2023-03-10T20:40:22.982Z,68.10
2023-03-10T20:42:56.898Z,68.90
2023-03-10T20:45:24.073Z,68.80
2023-03-10T20:47:53.364Z,68.10
2023-03-10T20:50:20.780Z,68.00
2023-03-10T20:52:48.401Z,67.80
2023-03-10T20:55:19.691Z,67.70
2023-03-10T20:57:48.498Z,67.70
2023-03-10T21:00:17.546Z,67.60
2023-03-10T21:02:46.546Z,67.50
2023-03-10T21:05:13.906Z,67.50
2023-03-10T21:07:40.947Z,67.60
2023-03-10T21:10:16.886Z,67.50
2023-03-10T21:12:44.672Z,67.70
2023-03-10T21:15:16.696Z,67.60
2023-03-10T21:17:44.089Z,67.60
2023-03-10T21:20:15.610Z,67.60
2023-03-10T21:22:43.032Z,67.70
2023-03-10T21:25:16.931Z,67.60
2023-03-10T21:27:49.650Z,67.50
2023-03-10T21:30:17.478Z,67.50
2023-03-10T21:32:45.062Z,67.20
2023-03-10T21:35:13.729Z,67.00
2023-03-10T21:37:42.450Z,66.90
2023-03-10T21:40:11.813Z,66.80
2023-03-10T21:42:38.972Z,66.70
2023-03-10T21:45:07.562Z,66.60
2023-03-10T21:47:34.607Z,66.30
2023-03-10T21:50:01.532Z,66.30
2023-03-10T21:52:28.412Z,66.20
2023-03-10T21:54:55.412Z,66.40
2023-03-10T21:57:22.364Z,66.60
2023-03-10T21:59:49.398Z,66.50
2023-03-10T22:02:30.632Z,66.60
2023-03-10T22:04:57.750Z,66.70
2023-03-10T22:07:24.831Z,66.70
2023-03-10T22:09:51.761Z,66.80
2023-03-10T22:12:18.649Z,66.80
2023-03-10T22:14:45.967Z,66.80
2023-03-10T22:17:12.954Z,66.70
2023-03-10T22:19:39.950Z,67.10
2023-03-10T22:22:06.870Z,66.80
2023-03-10T22:24:34.089Z,66.70
2023-03-10T22:27:01.100Z,66.70
2023-03-10T22:29:28.013Z,66.50
2023-03-10T22:31:56.194Z,66.60
2023-03-10T22:34:23.177Z,66.60
2023-03-10T22:36:50.228Z,66.60
2023-03-10T22:39:17.290Z,66.40
2023-03-10T22:41:44.561Z,66.50
2023-03-10T22:44:11.820Z,66.40
2023-03-10T22:46:39.325Z,66.10
2023-03-10T22:49:06.465Z,66.10
2023-03-10T22:51:33.428Z,65.80
2023-03-10T22:54:00.897Z,65.70
2023-03-10T22:56:27.858Z,65.60
2023-03-10T22:58:55.596Z,65.50
2023-03-10T23:01:23.077Z,65.40
2023-03-10T23:03:50.616Z,65.50
2023-03-10T23:06:18.776Z,65.30
2023-03-10T23:08:46.688Z,66.30
2023-03-10T23:11:15.748Z,65.30
2023-03-10T23:13:43.112Z,66.30
2023-03-10T23:16:10.206Z,65.50
2023-03-10T23:18:37.160Z,65.50
2023-03-10T23:21:04.888Z,65.40
2023-03-10T23:23:31.975Z,65.50
2023-03-10T23:25:59.067Z,65.50
2023-03-10T23:28:26.308Z,65.60
2023-03-10T23:30:54.247Z,65.60
2023-03-10T23:33:24.059Z,65.60
2023-03-10T23:35:53.945Z,65.70
2023-03-10T23:38:23.771Z,65.90
2023-03-10T23:40:52.614Z,65.90
2023-03-10T23:43:19.726Z,65.90
2023-03-10T23:45:47.023Z,66.00
2023-03-10T23:48:17.214Z,66.00
2023-03-10T23:50:46.484Z,65.90
2023-03-10T23:53:16.135Z,66.10
2023-03-10T23:55:46.071Z,67.20
2023-03-10T23:58:16.591Z,68.60
